createdAt,value
2022-09-21T00:02:15.946Z,6.10
2022-09-21T00:04:42.346Z,5.60
2022-09-21T00:07:08.703Z,6.70
2022-09-21T00:09:35.135Z,6.13
2022-09-21T00:12:02.485Z,7.03
2022-09-21T00:14:28.849Z,7.47
2022-09-21T00:16:55.360Z,5.40
2022-09-21T00:19:22.003Z,7.70
2022-09-21T00:21:48.888Z,7.30
2022-09-21T00:24:15.190Z,6.97
2022-09-21T00:26:41.538Z,7.47
2022-09-21T00:29:08.055Z,7.60
2022-09-21T00:31:34.739Z,7.40
2022-09-21T00:34:03.333Z,7.93
2022-09-21T00:36:29.644Z,6.57
2022-09-21T00:39:00.805Z,7.60
2022-09-21T00:41:29.169Z,6.50
2022-09-21T00:44:31.143Z,7.97
2022-09-21T00:47:04.614Z,6.60
2022-09-21T00:49:33.958Z,6.97
2022-09-21T00:52:04.244Z,5.60
2022-09-21T00:54:45.168Z,5.67
2022-09-21T00:57:12.264Z,6.83
2022-09-21T00:59:39.723Z,8.10
2022-09-21T01:02:06.227Z,7.27
2022-09-21T01:04:33.989Z,8.10
2022-09-21T01:07:04.991Z,8.30
2022-09-21T01:09:32.116Z,7.77
2022-09-21T01:12:15.121Z,7.67
2022-09-21T01:14:59.754Z,7.77
2022-09-21T01:17:50.775Z,8.10
2022-09-21T01:20:43.410Z,8.30
2022-09-21T01:23:40.040Z,8.70
2022-09-21T01:26:21.699Z,8.07
2022-09-21T01:29:01.911Z,8.37
2022-09-21T01:31:57.530Z,9.10
2022-09-21T01:34:31.942Z,8.97
2022-09-21T01:37:05.358Z,9.13
2022-09-21T01:39:34.952Z,9.20
2022-09-21T01:42:05.859Z,9.37
2022-09-21T01:44:34.472Z,9.37
2022-09-21T01:47:01.730Z,8.23
2022-09-21T01:49:35.322Z,8.20
2022-09-21T01:52:07.861Z,9.17
2022-09-21T01:54:40.547Z,9.30
2022-09-21T01:57:56.269Z,9.00
2022-09-21T02:00:24.336Z,10.37
2022-09-21T02:02:59.937Z,9.73
2022-09-21T02:05:30.150Z,8.90
2022-09-21T02:07:57.961Z,8.37
2022-09-21T02:10:32.287Z,7.70
2022-09-21T02:13:02.723Z,8.73
2022-09-21T02:15:42.344Z,8.43
2022-09-21T02:18:21.785Z,8.53
2022-09-21T02:20:56.989Z,8.83
2022-09-21T02:23:26.040Z,8.40
2022-09-21T02:25:59.543Z,8.53
2022-09-21T02:28:43.745Z,8.03
2022-09-21T02:31:24.671Z,8.30
2022-09-21T02:33:59.848Z,8.47
2022-09-21T02:36:35.507Z,7.43
2022-09-21T02:39:10.637Z,8.20
2022-09-21T02:41:49.271Z,8.07
2022-09-21T02:44:19.870Z,7.57
2022-09-21T02:46:59.116Z,8.27
2022-09-21T02:49:31.462Z,7.47
2022-09-21T02:52:05.317Z,8.20
2022-09-21T02:54:34.007Z,7.67
2022-09-21T02:57:02.542Z,7.63
2022-09-21T02:59:28.983Z,7.70
2022-09-21T03:01:58.255Z,7.20
2022-09-21T03:04:24.983Z,7.30
2022-09-21T03:06:51.704Z,7.10
2022-09-21T03:09:18.536Z,7.77
2022-09-21T03:11:44.884Z,7.47
2022-09-21T03:14:11.264Z,7.37
2022-09-21T03:16:38.646Z,7.40
2022-09-21T03:19:05.402Z,7.03
2022-09-21T03:21:31.902Z,7.20
2022-09-21T03:23:58.254Z,7.67
2022-09-21T03:26:24.667Z,7.63
2022-09-21T03:28:53.418Z,9.80
2022-09-21T03:31:20.306Z,13.47
2022-09-21T03:33:46.695Z,10.87
2022-09-21T03:36:13.106Z,9.73
2022-09-21T03:38:39.424Z,8.43
2022-09-21T03:41:06.197Z,7.90
2022-09-21T03:43:32.939Z,9.60
2022-09-21T03:45:59.290Z,9.53
2022-09-21T03:48:25.787Z,8.27
2022-09-21T03:50:52.278Z,8.23
2022-09-21T03:53:18.719Z,6.63
2022-09-21T03:55:45.051Z,7.53
2022-09-21T03:58:11.519Z,7.30
2022-09-21T04:00:39.093Z,7.73
2022-09-21T04:03:05.465Z,8.20
2022-09-21T04:05:32.007Z,10.67
2022-09-21T04:07:58.615Z,11.47
2022-09-21T04:10:32.604Z,11.10
2022-09-21T04:13:04.167Z,11.13
2022-09-21T04:15:31.237Z,10.27
2022-09-21T04:17:57.844Z,8.37
2022-09-21T04:20:24.642Z,9.70
2022-09-21T04:22:52.499Z,10.77
2022-09-21T04:25:19.456Z,9.57
2022-09-21T04:27:45.782Z,8.67
2022-09-21T04:30:13.738Z,8.40
2022-09-21T04:32:40.300Z,8.53
2022-09-21T04:35:07.376Z,9.20
2022-09-21T04:37:34.053Z,8.37
2022-09-21T04:40:00.767Z,9.50
2022-09-21T04:42:27.514Z,8.50
2022-09-21T04:44:53.892Z,8.23
2022-09-21T04:47:23.338Z,8.70
2022-09-21T04:49:49.608Z,7.87
2022-09-21T04:52:19.129Z,7.87
2022-09-21T04:54:46.331Z,8.37
2022-09-21T04:57:13.502Z,8.40
2022-09-21T04:59:39.847Z,8.70
2022-09-21T05:02:06.336Z,7.37
2022-09-21T05:04:32.657Z,7.97
2022-09-21T05:06:59.350Z,8.33
2022-09-21T05:09:44.350Z,7.50
2022-09-21T05:12:10.757Z,8.10
2022-09-21T05:14:37.329Z,9.10
2022-09-21T05:17:03.750Z,8.47
2022-09-21T05:19:30.069Z,9.10
2022-09-21T05:21:56.412Z,8.20
2022-09-21T05:24:22.833Z,7.67
2022-09-21T05:26:49.197Z,8.93
2022-09-21T05:29:15.831Z,8.07
2022-09-21T05:32:01.265Z,8.73
2022-09-21T05:34:53.519Z,8.90
2022-09-21T05:37:35.183Z,7.90
2022-09-21T05:40:01.997Z,8.30
2022-09-21T05:42:28.583Z,8.73
2022-09-21T05:44:55.315Z,8.17
2022-09-21T05:47:40.482Z,9.90
2022-09-21T05:50:27.966Z,8.07
2022-09-21T05:53:08.867Z,8.90
2022-09-21T05:55:41.202Z,9.50
2022-09-21T05:58:25.946Z,9.93
2022-09-21T06:01:03.411Z,10.07
2022-09-21T06:03:32.206Z,10.30
2022-09-21T06:05:59.166Z,9.43
2022-09-21T06:08:25.890Z,9.40
2022-09-21T06:10:52.623Z,10.83
2022-09-21T06:13:19.177Z,10.37
2022-09-21T06:15:45.698Z,10.43
2022-09-21T06:18:17.512Z,10.67
2022-09-21T06:20:44.325Z,10.00
2022-09-21T06:23:12.506Z,10.47
2022-09-21T06:25:38.911Z,9.67
2022-09-21T06:28:05.716Z,9.50
2022-09-21T06:30:35.829Z,10.70
2022-09-21T06:33:04.265Z,10.33
2022-09-21T06:35:32.142Z,10.57
2022-09-21T06:38:06.824Z,9.93
2022-09-21T06:40:35.478Z,8.97
2022-09-21T06:43:02.411Z,10.50
2022-09-21T06:45:30.212Z,10.43
2022-09-21T06:47:57.172Z,9.80
2022-09-21T06:50:24.473Z,9.87
2022-09-21T06:52:51.255Z,10.80
2022-09-21T06:55:17.571Z,10.00
2022-09-21T06:57:44.839Z,10.27
2022-09-21T07:00:13.524Z,9.83
2022-09-21T07:02:44.697Z,10.43
2022-09-21T07:05:11.379Z,9.93
2022-09-21T07:07:37.809Z,10.60
2022-09-21T07:10:05.483Z,13.77
2022-09-21T07:12:34.497Z,13.67
2022-09-21T07:15:05.650Z,13.60
2022-09-21T07:17:33.677Z,12.67
2022-09-21T07:20:01.812Z,14.23
2022-09-21T07:22:29.272Z,12.77
2022-09-21T07:24:55.765Z,13.40
2022-09-21T07:27:22.188Z,12.77
2022-09-21T07:29:48.532Z,12.53
2022-09-21T07:32:14.890Z,12.73
2022-09-21T07:34:41.184Z,12.77
2022-09-21T07:37:07.505Z,13.23
2022-09-21T07:39:33.756Z,13.03
2022-09-21T07:42:00.110Z,12.87
2022-09-21T07:44:26.761Z,12.27
2022-09-21T07:46:53.129Z,12.90
2022-09-21T07:49:19.423Z,12.03
2022-09-21T07:51:45.941Z,11.23
2022-09-21T07:54:13.083Z,13.33
2022-09-21T07:56:39.550Z,11.60
2022-09-21T07:59:05.912Z,11.60
2022-09-21T08:01:40.803Z,10.67
2022-09-21T08:04:09.999Z,10.37
2022-09-21T08:06:39.747Z,10.67
2022-09-21T08:09:06.785Z,9.80
2022-09-21T08:11:33.613Z,9.43
2022-09-21T08:14:02.064Z,10.40
2022-09-21T08:16:29.156Z,10.80
2022-09-21T08:18:55.857Z,11.30
2022-09-21T08:21:22.407Z,10.90
2022-09-21T08:23:49.158Z,12.10
2022-09-21T08:26:18.539Z,9.30
2022-09-21T08:28:49.108Z,10.37
2022-09-21T08:31:19.367Z,10.77
2022-09-21T08:33:46.904Z,10.07
2022-09-21T08:36:13.315Z,9.60
2022-09-21T08:38:39.885Z,9.93
2022-09-21T08:41:20.050Z,10.13
2022-09-21T08:43:53.215Z,9.57
2022-09-21T08:46:27.208Z,9.77
2022-09-21T08:48:59.941Z,8.63
2022-09-21T08:51:28.682Z,8.57
2022-09-21T08:54:01.555Z,7.87
2022-09-21T08:56:47.160Z,6.93
2022-09-21T08:59:15.697Z,6.10
2022-09-21T09:01:42.020Z,5.07
2022-09-21T09:04:39.865Z,4.03
2022-09-21T09:07:14.985Z,5.30
2022-09-21T09:09:49.273Z,5.33
2022-09-21T09:12:43.455Z,5.07
2022-09-21T09:15:15.770Z,4.23
2022-09-21T09:17:51.967Z,3.83
2022-09-21T09:20:26.047Z,3.03
2022-09-21T09:23:01.463Z,3.77
2022-09-21T09:25:32.837Z,3.00
2022-09-21T09:28:05.639Z,2.50
2022-09-21T09:30:34.753Z,2.80
2022-09-21T09:33:08.048Z,2.90
2022-09-21T09:35:51.723Z,2.37
2022-09-21T09:38:30.204Z,2.07
2022-09-21T09:41:28.916Z,3.77
2022-09-21T09:44:01.226Z,5.43
2022-09-21T09:46:37.558Z,2.73
2022-09-21T09:49:28.753Z,2.57
2022-09-21T09:51:55.332Z,2.67
2022-09-21T09:54:26.169Z,2.07
2022-09-21T09:56:53.326Z,2.27
2022-09-21T09:59:26.100Z,1.70
2022-09-21T10:02:02.113Z,2.53
2022-09-21T10:04:28.806Z,1.90
2022-09-21T10:06:55.200Z,2.03
2022-09-21T10:09:31.579Z,1.97
2022-09-21T10:12:01.677Z,1.60
2022-09-21T10:14:34.214Z,2.13
2022-09-21T10:17:07.075Z,2.03
2022-09-21T10:19:34.077Z,2.10
2022-09-21T10:22:04.080Z,1.83
2022-09-21T10:24:30.372Z,1.90
2022-09-21T10:27:05.040Z,1.87
2022-09-21T10:29:39.110Z,1.80
2022-09-21T10:32:26.961Z,1.70
2022-09-21T10:35:00.715Z,1.40
2022-09-21T10:37:30.479Z,1.70
2022-09-21T10:39:57.170Z,1.33
2022-09-21T10:42:23.858Z,1.80
2022-09-21T10:44:53.393Z,1.60
2022-09-21T10:47:35.284Z,1.57
2022-09-21T10:50:05.813Z,1.50
2022-09-21T10:52:36.260Z,2.17
2022-09-21T10:55:02.775Z,2.33
2022-09-21T10:57:30.137Z,2.23
2022-09-21T10:59:57.251Z,2.23
2022-09-21T11:02:25.398Z,1.97
2022-09-21T11:05:00.640Z,1.80
2022-09-21T11:07:50.150Z,1.37
2022-09-21T11:10:16.377Z,1.93
2022-09-21T11:12:53.157Z,1.80
2022-09-21T11:15:33.835Z,1.90
2022-09-21T11:18:21.930Z,1.80
2022-09-21T11:20:58.363Z,1.40
2022-09-21T11:23:24.624Z,1.77
2022-09-21T11:26:12.849Z,1.53
2022-09-21T11:28:58.705Z,1.80
2022-09-21T11:31:32.622Z,2.60
2022-09-21T11:34:17.226Z,1.70
2022-09-21T11:36:51.522Z,1.43
2022-09-21T11:39:28.311Z,1.77
2022-09-21T11:42:29.662Z,1.93
2022-09-21T11:45:01.900Z,1.70
2022-09-21T11:47:54.729Z,2.03
2022-09-21T11:50:33.253Z,1.93
2022-09-21T11:53:20.160Z,1.90
2022-09-21T11:56:16.680Z,2.00
2022-09-21T11:58:45.714Z,1.67
2022-09-21T12:01:43.166Z,1.40
2022-09-21T12:04:21.941Z,1.90
2022-09-21T12:07:15.480Z,1.63
2022-09-21T12:09:57.804Z,2.07
2022-09-21T12:12:35.270Z,2.17
2022-09-21T12:15:19.275Z,1.90
2022-09-21T12:18:00.277Z,1.70
2022-09-21T12:20:39.952Z,1.50
2022-09-21T12:23:46.546Z,1.67
2022-09-21T12:26:15.499Z,1.70
2022-09-21T12:28:44.610Z,1.60
2022-09-21T12:31:23.052Z,1.90
2022-09-21T12:33:49.385Z,2.67
2022-09-21T12:36:17.155Z,1.73
2022-09-21T12:38:59.386Z,1.23
2022-09-21T12:41:53.648Z,1.00
2022-09-21T12:44:25.980Z,1.00
2022-09-21T12:47:08.991Z,1.47
2022-09-21T12:49:40.980Z,1.33
2022-09-21T12:52:07.785Z,1.10
2022-09-21T12:54:37.850Z,1.40
2022-09-21T12:57:45.727Z,1.40
2022-09-21T13:00:17.731Z,1.60
2022-09-21T13:02:51.501Z,2.00
2022-09-21T13:05:38.773Z,1.50
2022-09-21T13:08:25.227Z,1.70
2022-09-21T13:10:55.586Z,1.60
2022-09-21T13:13:44.291Z,1.87
2022-09-21T13:16:27.517Z,1.27
2022-09-21T13:19:01.462Z,1.10
2022-09-21T13:21:31.115Z,1.60
2022-09-21T13:24:01.715Z,1.43
2022-09-21T13:26:52.242Z,1.40
2022-09-21T13:29:22.008Z,1.33
2022-09-21T13:32:07.072Z,1.57
2022-09-21T13:34:41.212Z,1.10
2022-09-21T13:37:25.252Z,0.90
2022-09-21T13:40:04.054Z,1.30
2022-09-21T13:42:33.084Z,0.97
2022-09-21T13:45:16.102Z,1.80
2022-09-21T13:47:45.564Z,1.30
2022-09-21T13:50:25.716Z,1.53
2022-09-21T13:52:53.848Z,1.57
2022-09-21T13:55:33.201Z,1.63
2022-09-21T13:58:24.806Z,1.33
2022-09-21T14:00:51.773Z,1.60
2022-09-21T14:03:37.068Z,1.40
2022-09-21T14:06:15.655Z,1.40
2022-09-21T14:08:54.157Z,1.43
2022-09-21T14:11:37.035Z,1.50
2022-09-21T14:14:22.146Z,1.83
2022-09-21T14:16:57.613Z,1.60
2022-09-21T14:19:26.668Z,1.50
2022-09-21T14:22:04.964Z,2.00
2022-09-21T14:24:36.181Z,1.60
2022-09-21T14:27:13.102Z,1.43
2022-09-21T14:29:44.374Z,1.30
2022-09-21T14:32:14.267Z,1.40
2022-09-21T14:34:42.343Z,1.50
2022-09-21T14:37:27.418Z,1.73
2022-09-21T14:39:54.594Z,1.87
2022-09-21T14:42:28.065Z,1.87
2022-09-21T14:45:02.028Z,2.07
2022-09-21T14:47:57.236Z,1.50
2022-09-21T14:50:27.648Z,1.60
2022-09-21T14:53:23.007Z,1.40
2022-09-21T14:56:09.983Z,1.50
2022-09-21T14:59:07.299Z,1.77
2022-09-21T15:01:37.240Z,1.90
2022-09-21T15:04:54.883Z,1.80
2022-09-21T15:07:54.755Z,2.30
2022-09-21T15:10:39.602Z,1.43
2022-09-21T15:13:27.528Z,1.97
2022-09-21T15:16:17.669Z,1.50
2022-09-21T15:18:47.810Z,1.10
2022-09-21T15:21:29.183Z,1.50
2022-09-21T15:23:56.592Z,1.07
2022-09-21T15:26:29.062Z,1.20
2022-09-21T15:29:09.266Z,1.60
2022-09-21T15:31:39.242Z,1.80
2022-09-21T15:34:07.707Z,1.30
2022-09-21T15:36:36.573Z,1.73
2022-09-21T15:39:03.259Z,1.80
2022-09-21T15:41:40.655Z,1.53
2022-09-21T15:44:13.178Z,2.23
2022-09-21T15:46:41.419Z,2.17
2022-09-21T15:49:12.183Z,1.97
2022-09-21T15:51:43.412Z,2.20
2022-09-21T15:54:39.907Z,1.90
2022-09-21T15:57:24.353Z,1.70
2022-09-21T15:59:52.085Z,1.83
2022-09-21T16:02:21.442Z,1.27
2022-09-21T16:04:49.862Z,1.83
2022-09-21T16:07:37.008Z,2.10
2022-09-21T16:10:35.814Z,1.90
2022-09-21T16:13:30.840Z,1.60
2022-09-21T16:16:11.950Z,1.50
2022-09-21T16:18:46.734Z,1.13
2022-09-21T16:21:20.282Z,1.90
2022-09-21T16:23:48.311Z,1.57
2022-09-21T16:26:18.647Z,1.73
2022-09-21T16:28:45.073Z,1.87
2022-09-21T16:31:30.144Z,1.50
2022-09-21T16:34:02.393Z,1.80
2022-09-21T16:36:31.759Z,1.60
2022-09-21T16:38:58.339Z,1.67
2022-09-21T16:41:39.765Z,2.03
2022-09-21T16:44:09.838Z,1.67
2022-09-21T16:46:36.198Z,1.80
2022-09-21T16:49:02.545Z,1.40
2022-09-21T16:51:28.915Z,1.70
2022-09-21T16:53:56.511Z,1.63
2022-09-21T16:56:23.121Z,1.40
2022-09-21T16:58:49.378Z,1.93
2022-09-21T17:01:18.055Z,2.17
2022-09-21T17:03:46.237Z,1.97
2022-09-21T17:06:18.887Z,1.87
2022-09-21T17:08:48.064Z,2.03
2022-09-21T17:11:19.622Z,1.80
2022-09-21T17:13:46.556Z,1.40
2022-09-21T17:16:15.728Z,1.97
2022-09-21T17:18:42.103Z,1.67
2022-09-21T17:21:09.339Z,1.30
2022-09-21T17:23:36.948Z,1.40
2022-09-21T17:26:03.992Z,1.50
2022-09-21T17:28:31.073Z,1.57
2022-09-21T17:30:57.441Z,1.90
2022-09-21T17:33:23.834Z,2.10
2022-09-21T17:35:51.006Z,1.80
2022-09-21T17:38:18.035Z,1.93
2022-09-21T17:40:44.700Z,2.33
2022-09-21T17:43:30.314Z,1.90
2022-09-21T17:46:11.369Z,2.10
2022-09-21T17:48:39.806Z,2.10
2022-09-21T17:51:06.626Z,1.90
2022-09-21T17:53:40.255Z,1.90
2022-09-21T17:56:27.539Z,1.90
2022-09-21T17:58:59.400Z,2.43
2022-09-21T18:01:31.422Z,2.67
2022-09-21T18:03:58.343Z,2.57
2022-09-21T18:06:25.774Z,2.40
2022-09-21T18:08:53.700Z,2.03
2022-09-21T18:11:44.579Z,2.13
2022-09-21T18:14:20.195Z,1.80
2022-09-21T18:16:49.538Z,2.80
2022-09-21T18:19:39.427Z,1.90
2022-09-21T18:22:19.049Z,2.53
2022-09-21T18:24:45.739Z,2.03
2022-09-21T18:27:12.138Z,2.43
2022-09-21T18:29:41.391Z,2.20
2022-09-21T18:32:14.211Z,2.50
2022-09-21T18:34:51.018Z,2.80
2022-09-21T18:37:42.008Z,2.23
2022-09-21T18:40:21.741Z,2.70
2022-09-21T18:42:59.347Z,2.77
2022-09-21T18:45:31.756Z,2.20
2022-09-21T18:48:13.799Z,2.33
2022-09-21T18:50:57.205Z,2.00
2022-09-21T18:53:33.796Z,1.93
2022-09-21T18:56:00.646Z,2.07
2022-09-21T18:58:27.359Z,2.43
2022-09-21T19:00:53.813Z,2.33
2022-09-21T19:03:20.417Z,2.13
2022-09-21T19:05:56.888Z,2.57
2022-09-21T19:08:31.955Z,2.77
2022-09-21T19:11:15.794Z,3.17
2022-09-21T19:14:06.885Z,2.43
2022-09-21T19:16:42.015Z,5.70
2022-09-21T19:19:18.860Z,5.13
2022-09-21T19:21:52.014Z,6.97
2022-09-21T19:24:22.155Z,8.17
2022-09-21T19:26:57.744Z,7.37
2022-09-21T19:29:44.514Z,6.50
2022-09-21T19:32:15.745Z,6.77
2022-09-21T19:34:42.989Z,6.93
2022-09-21T19:37:09.908Z,6.47
2022-09-21T19:39:37.239Z,6.17
2022-09-21T19:42:35.952Z,7.87
2022-09-21T19:45:16.918Z,7.10
2022-09-21T19:47:50.611Z,6.67
2022-09-21T19:50:18.342Z,7.43
2022-09-21T19:52:45.417Z,7.10
2022-09-21T19:55:40.300Z,4.93
2022-09-21T19:58:25.449Z,5.13
2022-09-21T20:00:54.868Z,5.83
2022-09-21T20:03:37.424Z,5.90
2022-09-21T20:06:11.615Z,5.20
2022-09-21T20:09:05.196Z,5.87
2022-09-21T20:11:59.216Z,6.73
2022-09-21T20:14:52.224Z,5.67
2022-09-21T20:17:36.105Z,7.20
2022-09-21T20:20:12.446Z,6.60
2022-09-21T20:22:40.765Z,7.03
2022-09-21T20:25:23.637Z,7.87
2022-09-21T20:27:53.243Z,6.97
2022-09-21T20:30:25.961Z,6.30
2022-09-21T20:32:56.736Z,6.53
2022-09-21T20:35:28.120Z,6.93
2022-09-21T20:37:58.572Z,7.20
2022-09-21T20:40:28.805Z,7.27
2022-09-21T20:42:56.958Z,7.20
2022-09-21T20:45:25.173Z,7.50
2022-09-21T20:47:52.518Z,7.10
2022-09-21T20:50:19.040Z,7.30
2022-09-21T20:52:45.391Z,7.53
2022-09-21T20:55:14.085Z,8.30
2022-09-21T20:57:40.682Z,6.97
2022-09-21T21:00:10.297Z,7.70
2022-09-21T21:02:36.675Z,8.37
2022-09-21T21:05:03.732Z,7.50
2022-09-21T21:07:30.784Z,7.90
2022-09-21T21:09:57.643Z,8.00
2022-09-21T21:12:24.224Z,9.70
2022-09-21T21:14:51.129Z,8.37
2022-09-21T21:17:17.443Z,8.30
2022-09-21T21:19:44.161Z,7.83
2022-09-21T21:22:12.893Z,8.47
2022-09-21T21:24:43.471Z,8.70
2022-09-21T21:27:18.418Z,8.47
2022-09-21T21:29:50.011Z,9.20
2022-09-21T21:32:17.772Z,8.63
2022-09-21T21:34:44.489Z,8.67
2022-09-21T21:37:13.001Z,8.83
2022-09-21T21:39:40.049Z,8.63
2022-09-21T21:42:06.666Z,8.10
2022-09-21T21:44:33.018Z,8.17
2022-09-21T21:47:15.116Z,8.90
2022-09-21T21:49:45.675Z,7.87
2022-09-21T21:52:13.088Z,8.47
2022-09-21T21:54:39.435Z,8.93
2022-09-21T21:57:05.839Z,8.30
2022-09-21T21:59:32.508Z,6.90
2022-09-21T22:01:59.004Z,9.93
2022-09-21T22:04:27.798Z,8.87
2022-09-21T22:06:54.392Z,8.03
2022-09-21T22:09:22.032Z,8.47
2022-09-21T22:11:48.823Z,9.40
2022-09-21T22:14:15.155Z,8.80
2022-09-21T22:16:41.610Z,8.47
2022-09-21T22:19:08.912Z,9.43
2022-09-21T22:21:46.047Z,9.27
2022-09-21T22:24:14.641Z,9.73
2022-09-21T22:26:44.317Z,9.10
2022-09-21T22:29:13.260Z,8.73
2022-09-21T22:31:41.850Z,8.83
2022-09-21T22:34:08.996Z,8.47
2022-09-21T22:36:36.938Z,8.90
2022-09-21T22:39:05.299Z,8.77
2022-09-21T22:41:35.207Z,8.70
2022-09-21T22:44:01.701Z,8.03
2022-09-21T22:46:29.441Z,7.60
2022-09-21T22:48:55.756Z,9.43
2022-09-21T22:51:22.368Z,9.10
2022-09-21T22:53:50.527Z,7.50
2022-09-21T22:56:22.425Z,8.80
2022-09-21T22:58:53.948Z,8.53
2022-09-21T23:01:25.285Z,8.60
2022-09-21T23:03:53.223Z,9.50
2022-09-21T23:06:20.816Z,8.90
2022-09-21T23:08:51.686Z,9.10
2022-09-21T23:11:21.797Z,9.00
2022-09-21T23:13:49.228Z,8.73
2022-09-21T23:16:16.828Z,9.20
2022-09-21T23:18:44.469Z,8.10
2022-09-21T23:21:13.484Z,8.07
2022-09-21T23:23:40.187Z,8.77
2022-09-21T23:26:12.831Z,8.80
2022-09-21T23:28:41.689Z,8.77
2022-09-21T23:31:11.247Z,9.43
2022-09-21T23:33:41.021Z,9.10
2022-09-21T23:36:09.745Z,9.87
2022-09-21T23:38:36.565Z,9.83
2022-09-21T23:41:04.237Z,9.07
2022-09-21T23:43:31.117Z,9.70
2022-09-21T23:45:57.677Z,8.73
2022-09-21T23:48:24.677Z,10.13
2022-09-21T23:50:51.069Z,9.20
2022-09-21T23:53:17.429Z,9.37
2022-09-21T23:55:43.727Z,9.63
2022-09-21T23:58:10.127Z,9.90
